sensor_id;sensor_type;location;lat;lon;timestamp;P1;durP1;ratioP1;P2;durP2;ratioP2
15616;SDS011;7908;51.688;7.130;2023-04-24T00:01:10;5.13;;;2.43;;
15616;SDS011;7908;51.688;7.130;2023-04-24T00:03:39;4.40;;;2.60;;
15616;SDS011;7908;51.688;7.130;2023-04-24T00:06:10;4.33;;;2.43;;
15616;SDS011;7908;51.688;7.130;2023-04-24T00:08:39;3.70;;;2.23;;
15616;SDS011;7908;51.688;7.130;2023-04-24T00:11:08;3.53;;;1.93;;
15616;SDS011;7908;51.688;7.130;2023-04-24T00:13:37;4.07;;;2.23;;
15616;SDS011;7908;51.688;7.130;2023-04-24T00:16:06;3.27;;;2.00;;
15616;SDS011;7908;51.688;7.130;2023-04-24T00:18:35;5.23;;;2.73;;
15616;SDS011;7908;51.688;7.130;2023-04-24T00:21:04;2.97;;;2.10;;
15616;SDS011;7908;51.688;7.130;2023-04-24T00:23:35;3.67;;;2.17;;
15616;SDS011;7908;51.688;7.130;2023-04-24T00:26:03;2.90;;;2.17;;
15616;SDS011;7908;51.688;7.130;2023-04-24T00:28:32;2.47;;;1.20;;
15616;SDS011;7908;51.688;7.130;2023-04-24T00:31:01;3.67;;;2.30;;
15616;SDS011;7908;51.688;7.130;2023-04-24T00:33:29;3.47;;;2.03;;
15616;SDS011;7908;51.688;7.130;2023-04-24T00:35:58;2.87;;;2.10;;
15616;SDS011;7908;51.688;7.130;2023-04-24T00:38:27;2.67;;;1.90;;
15616;SDS011;7908;51.688;7.130;2023-04-24T00:40:57;2.23;;;2.00;;
15616;SDS011;7908;51.688;7.130;2023-04-24T00:43:26;3.47;;;1.60;;
15616;SDS011;7908;51.688;7.130;2023-04-24T00:45:54;2.63;;;1.80;;
15616;SDS011;7908;51.688;7.130;2023-04-24T00:48:23;3.60;;;2.30;;
15616;SDS011;7908;51.688;7.130;2023-04-24T00:50:53;3.27;;;2.63;;
15616;SDS011;7908;51.688;7.130;2023-04-24T00:53:22;2.10;;;1.60;;
15616;SDS011;7908;51.688;7.130;2023-04-24T00:55:51;5.03;;;3.07;;
15616;SDS011;7908;51.688;7.130;2023-04-24T00:58:21;3.30;;;2.40;;
15616;SDS011;7908;51.688;7.130;2023-04-24T01:00:50;2.40;;;2.10;;
15616;SDS011;7908;51.688;7.130;2023-04-24T01:03:21;2.40;;;1.80;;
15616;SDS011;7908;51.688;7.130;2023-04-24T01:05:52;2.77;;;1.53;;
15616;SDS011;7908;51.688;7.130;2023-04-24T01:08:23;2.57;;;1.50;;
15616;SDS011;7908;51.688;7.130;2023-04-24T01:10:54;3.13;;;1.57;;
15616;SDS011;7908;51.688;7.130;2023-04-24T01:13:26;2.37;;;1.70;;
15616;SDS011;7908;51.688;7.130;2023-04-24T01:15:55;1.90;;;1.67;;
15616;SDS011;7908;51.688;7.130;2023-04-24T01:18:23;3.30;;;1.83;;
15616;SDS011;7908;51.688;7.130;2023-04-24T01:20:53;2.30;;;2.00;;
15616;SDS011;7908;51.688;7.130;2023-04-24T01:23:26;3.17;;;2.07;;
15616;SDS011;7908;51.688;7.130;2023-04-24T01:25:55;4.47;;;2.20;;
15616;SDS011;7908;51.688;7.130;2023-04-24T01:28:24;3.20;;;2.00;;
15616;SDS011;7908;51.688;7.130;2023-04-24T01:30:52;3.13;;;2.33;;
15616;SDS011;7908;51.688;7.130;2023-04-24T01:33:21;2.27;;;2.07;;
15616;SDS011;7908;51.688;7.130;2023-04-24T01:35:50;2.70;;;1.93;;
15616;SDS011;7908;51.688;7.130;2023-04-24T01:38:19;2.27;;;2.00;;
15616;SDS011;7908;51.688;7.130;2023-04-24T01:40:50;3.10;;;2.33;;
15616;SDS011;7908;51.688;7.130;2023-04-24T01:43:19;3.30;;;2.30;;
15616;SDS011;7908;51.688;7.130;2023-04-24T01:45:48;2.40;;;2.10;;
15616;SDS011;7908;51.688;7.130;2023-04-24T01:48:17;3.90;;;2.60;;
15616;SDS011;7908;51.688;7.130;2023-04-24T01:50:46;5.13;;;3.10;;
15616;SDS011;7908;51.688;7.130;2023-04-24T01:53:14;4.37;;;3.00;;
15616;SDS011;7908;51.688;7.130;2023-04-24T01:55:43;5.70;;;3.30;;
15616;SDS011;7908;51.688;7.130;2023-04-24T01:58:13;5.20;;;3.30;;
15616;SDS011;7908;51.688;7.130;2023-04-24T02:00:42;6.07;;;4.00;;
15616;SDS011;7908;51.688;7.130;2023-04-24T02:03:10;6.07;;;4.27;;
15616;SDS011;7908;51.688;7.130;2023-04-24T02:05:39;7.03;;;4.53;;
15616;SDS011;7908;51.688;7.130;2023-04-24T02:08:08;6.30;;;4.60;;
15616;SDS011;7908;51.688;7.130;2023-04-24T02:10:37;8.27;;;5.80;;
15616;SDS011;7908;51.688;7.130;2023-04-24T02:13:05;6.00;;;5.40;;
15616;SDS011;7908;51.688;7.130;2023-04-24T02:15:35;5.63;;;4.70;;
15616;SDS011;7908;51.688;7.130;2023-04-24T02:18:04;5.97;;;4.73;;
15616;SDS011;7908;51.688;7.130;2023-04-24T02:20:33;7.23;;;4.87;;
15616;SDS011;7908;51.688;7.130;2023-04-24T02:23:02;5.80;;;4.93;;
15616;SDS011;7908;51.688;7.130;2023-04-24T02:25:30;8.60;;;5.93;;
15616;SDS011;7908;51.688;7.130;2023-04-24T02:27:59;8.20;;;6.07;;
15616;SDS011;7908;51.688;7.130;2023-04-24T02:30:28;7.37;;;5.60;;
15616;SDS011;7908;51.688;7.130;2023-04-24T02:32:59;8.10;;;6.27;;
15616;SDS011;7908;51.688;7.130;2023-04-24T02:35:27;7.00;;;6.30;;
15616;SDS011;7908;51.688;7.130;2023-04-24T02:37:56;8.50;;;6.30;;
15616;SDS011;7908;51.688;7.130;2023-04-24T02:40:25;8.30;;;6.83;;
15616;SDS011;7908;51.688;7.130;2023-04-24T02:42:53;8.50;;;6.63;;
15616;SDS011;7908;51.688;7.130;2023-04-24T02:45:22;7.53;;;6.53;;
15616;SDS011;7908;51.688;7.130;2023-04-24T02:47:51;9.33;;;7.20;;
15616;SDS011;7908;51.688;7.130;2023-04-24T02:50:21;11.53;;;6.90;;
15616;SDS011;7908;51.688;7.130;2023-04-24T02:52:50;12.83;;;8.10;;
15616;SDS011;7908;51.688;7.130;2023-04-24T02:55:19;9.27;;;7.80;;
15616;SDS011;7908;51.688;7.130;2023-04-24T02:57:47;12.40;;;8.43;;
15616;SDS011;7908;51.688;7.130;2023-04-24T03:00:16;10.33;;;9.13;;
15616;SDS011;7908;51.688;7.130;2023-04-24T03:02:44;11.77;;;9.43;;
15616;SDS011;7908;51.688;7.130;2023-04-24T03:05:14;10.53;;;9.07;;
15616;SDS011;7908;51.688;7.130;2023-04-24T03:07:44;11.60;;;9.40;;
15616;SDS011;7908;51.688;7.130;2023-04-24T03:10:13;14.00;;;10.73;;
15616;SDS011;7908;51.688;7.130;2023-04-24T03:12:42;12.47;;;10.63;;
15616;SDS011;7908;51.688;7.130;2023-04-24T03:15:11;13.80;;;11.17;;
15616;SDS011;7908;51.688;7.130;2023-04-24T03:17:39;13.70;;;11.70;;
15616;SDS011;7908;51.688;7.130;2023-04-24T03:20:08;13.93;;;11.70;;
15616;SDS011;7908;51.688;7.130;2023-04-24T03:22:37;13.70;;;12.30;;
15616;SDS011;7908;51.688;7.130;2023-04-24T03:25:08;16.77;;;14.10;;
15616;SDS011;7908;51.688;7.130;2023-04-24T03:27:37;16.30;;;12.90;;
15616;SDS011;7908;51.688;7.130;2023-04-24T03:30:06;14.17;;;12.60;;
15616;SDS011;7908;51.688;7.130;2023-04-24T03:32:35;14.00;;;12.50;;
15616;SDS011;7908;51.688;7.130;2023-04-24T03:35:06;14.27;;;12.73;;
15616;SDS011;7908;51.688;7.130;2023-04-24T03:37:35;14.90;;;12.00;;
15616;SDS011;7908;51.688;7.130;2023-04-24T03:40:04;15.93;;;12.10;;
15616;SDS011;7908;51.688;7.130;2023-04-24T03:42:35;13.30;;;11.90;;
15616;SDS011;7908;51.688;7.130;2023-04-24T03:45:05;13.93;;;11.63;;
15616;SDS011;7908;51.688;7.130;2023-04-24T03:47:34;16.73;;;12.67;;
15616;SDS011;7908;51.688;7.130;2023-04-24T03:50:04;20.50;;;13.30;;
15616;SDS011;7908;51.688;7.130;2023-04-24T03:52:33;17.23;;;13.67;;
15616;SDS011;7908;51.688;7.130;2023-04-24T03:55:01;15.77;;;13.60;;
15616;SDS011;7908;51.688;7.130;2023-04-24T03:57:30;18.03;;;14.00;;
15616;SDS011;7908;51.688;7.130;2023-04-24T04:00:00;14.83;;;13.27;;
15616;SDS011;7908;51.688;7.130;2023-04-24T04:02:31;16.47;;;13.83;;
15616;SDS011;7908;51.688;7.130;2023-04-24T04:05:00;18.63;;;13.23;;
15616;SDS011;7908;51.688;7.130;2023-04-24T04:07:29;14.80;;;12.93;;
15616;SDS011;7908;51.688;7.130;2023-04-24T04:09:57;14.17;;;12.47;;
15616;SDS011;7908;51.688;7.130;2023-04-24T04:12:26;16.63;;;13.17;;
15616;SDS011;7908;51.688;7.130;2023-04-24T04:14:55;17.93;;;13.17;;
15616;SDS011;7908;51.688;7.130;2023-04-24T04:17:25;16.07;;;13.73;;
15616;SDS011;7908;51.688;7.130;2023-04-24T04:19:54;17.30;;;12.53;;
15616;SDS011;7908;51.688;7.130;2023-04-24T04:22:22;14.53;;;13.03;;
15616;SDS011;7908;51.688;7.130;2023-04-24T04:24:51;16.63;;;13.63;;
15616;SDS011;7908;51.688;7.130;2023-04-24T04:27:20;16.70;;;12.97;;
15616;SDS011;7908;51.688;7.130;2023-04-24T04:29:48;16.67;;;13.20;;
15616;SDS011;7908;51.688;7.130;2023-04-24T04:32:17;19.03;;;13.67;;
15616;SDS011;7908;51.688;7.130;2023-04-24T04:34:48;16.03;;;12.43;;
15616;SDS011;7908;51.688;7.130;2023-04-24T04:37:20;16.90;;;13.53;;
15616;SDS011;7908;51.688;7.130;2023-04-24T04:39:53;17.33;;;13.13;;
15616;SDS011;7908;51.688;7.130;2023-04-24T04:42:27;16.83;;;13.90;;
15616;SDS011;7908;51.688;7.130;2023-04-24T04:44:57;17.63;;;13.57;;
15616;SDS011;7908;51.688;7.130;2023-04-24T04:47:25;15.77;;;14.07;;
15616;SDS011;7908;51.688;7.130;2023-04-24T04:49:56;19.30;;;13.43;;
15616;SDS011;7908;51.688;7.130;2023-04-24T04:52:25;16.57;;;13.93;;
15616;SDS011;7908;51.688;7.130;2023-04-24T04:54:54;17.70;;;14.27;;
15616;SDS011;7908;51.688;7.130;2023-04-24T04:57:22;18.07;;;13.40;;
15616;SDS011;7908;51.688;7.130;2023-04-24T04:59:52;14.87;;;12.83;;
15616;SDS011;7908;51.688;7.130;2023-04-24T05:02:20;14.10;;;12.13;;
15616;SDS011;7908;51.688;7.130;2023-04-24T05:04:49;15.47;;;12.50;;
15616;SDS011;7908;51.688;7.130;2023-04-24T05:07:19;14.17;;;11.90;;
15616;SDS011;7908;51.688;7.130;2023-04-24T05:09:48;16.40;;;11.97;;
15616;SDS011;7908;51.688;7.130;2023-04-24T05:12:18;14.13;;;12.00;;
15616;SDS011;7908;51.688;7.130;2023-04-24T05:14:46;14.03;;;10.97;;
15616;SDS011;7908;51.688;7.130;2023-04-24T05:17:15;14.17;;;11.60;;
15616;SDS011;7908;51.688;7.130;2023-04-24T05:19:44;13.77;;;11.43;;
15616;SDS011;7908;51.688;7.130;2023-04-24T05:22:12;15.77;;;10.63;;
15616;SDS011;7908;51.688;7.130;2023-04-24T05:24:42;14.07;;;10.27;;
15616;SDS011;7908;51.688;7.130;2023-04-24T05:27:11;12.60;;;10.43;;
15616;SDS011;7908;51.688;7.130;2023-04-24T05:29:40;18.10;;;10.97;;
15616;SDS011;7908;51.688;7.130;2023-04-24T05:32:09;11.33;;;10.13;;
15616;SDS011;7908;51.688;7.130;2023-04-24T05:34:38;15.07;;;10.27;;
15616;SDS011;7908;51.688;7.130;2023-04-24T05:37:06;11.97;;;9.73;;
15616;SDS011;7908;51.688;7.130;2023-04-24T05:39:36;13.33;;;10.70;;
15616;SDS011;7908;51.688;7.130;2023-04-24T05:42:06;13.60;;;10.50;;
15616;SDS011;7908;51.688;7.130;2023-04-24T05:44:35;14.53;;;10.53;;
15616;SDS011;7908;51.688;7.130;2023-04-24T05:47:03;11.63;;;10.13;;
15616;SDS011;7908;51.688;7.130;2023-04-24T05:49:32;13.20;;;10.37;;
15616;SDS011;7908;51.688;7.130;2023-04-24T05:52:01;11.80;;;9.50;;
15616;SDS011;7908;51.688;7.130;2023-04-24T05:54:30;12.97;;;9.70;;
15616;SDS011;7908;51.688;7.130;2023-04-24T05:56:59;12.70;;;10.20;;
15616;SDS011;7908;51.688;7.130;2023-04-24T05:59:32;10.83;;;9.77;;
15616;SDS011;7908;51.688;7.130;2023-04-24T06:02:01;11.60;;;9.63;;
15616;SDS011;7908;51.688;7.130;2023-04-24T06:04:30;11.63;;;10.33;;
15616;SDS011;7908;51.688;7.130;2023-04-24T06:06:59;12.40;;;9.70;;
15616;SDS011;7908;51.688;7.130;2023-04-24T06:09:28;10.67;;;9.03;;
15616;SDS011;7908;51.688;7.130;2023-04-24T06:11:56;11.07;;;9.97;;
15616;SDS011;7908;51.688;7.130;2023-04-24T06:14:26;12.70;;;10.67;;
15616;SDS011;7908;51.688;7.130;2023-04-24T06:16:56;12.63;;;11.40;;
15616;SDS011;7908;51.688;7.130;2023-04-24T06:19:28;12.77;;;11.43;;
15616;SDS011;7908;51.688;7.130;2023-04-24T06:21:57;12.77;;;11.47;;
15616;SDS011;7908;51.688;7.130;2023-04-24T06:24:27;12.33;;;11.23;;
15616;SDS011;7908;51.688;7.130;2023-04-24T06:26:55;12.47;;;11.07;;
15616;SDS011;7908;51.688;7.130;2023-04-24T06:29:26;12.03;;;10.83;;
15616;SDS011;7908;51.688;7.130;2023-04-24T06:31:56;12.27;;;11.07;;
15616;SDS011;7908;51.688;7.130;2023-04-24T06:34:25;12.50;;;11.03;;
15616;SDS011;7908;51.688;7.130;2023-04-24T06:36:53;12.87;;;10.97;;
15616;SDS011;7908;51.688;7.130;2023-04-24T06:39:22;13.00;;;10.97;;
15616;SDS011;7908;51.688;7.130;2023-04-24T06:41:51;11.60;;;10.40;;
15616;SDS011;7908;51.688;7.130;2023-04-24T06:44:19;12.20;;;10.53;;
15616;SDS011;7908;51.688;7.130;2023-04-24T06:46:48;12.27;;;10.97;;
15616;SDS011;7908;51.688;7.130;2023-04-24T06:49:18;13.07;;;11.67;;
15616;SDS011;7908;51.688;7.130;2023-04-24T06:51:47;11.63;;;10.53;;
15616;SDS011;7908;51.688;7.130;2023-04-24T06:54:15;12.67;;;10.37;;
15616;SDS011;7908;51.688;7.130;2023-04-24T06:56:44;11.47;;;10.27;;
15616;SDS011;7908;51.688;7.130;2023-04-24T06:59:14;11.43;;;10.37;;
15616;SDS011;7908;51.688;7.130;2023-04-24T07:01:43;10.60;;;9.60;;
15616;SDS011;7908;51.688;7.130;2023-04-24T07:04:12;11.67;;;10.13;;
15616;SDS011;7908;51.688;7.130;2023-04-24T07:06:43;10.53;;;9.43;;
15616;SDS011;7908;51.688;7.130;2023-04-24T07:09:12;10.80;;;9.40;;
15616;SDS011;7908;51.688;7.130;2023-04-24T07:11:42;15.33;;;8.50;;
15616;SDS011;7908;51.688;7.130;2023-04-24T07:14:11;10.47;;;8.97;;
15616;SDS011;7908;51.688;7.130;2023-04-24T07:16:43;10.00;;;8.93;;
15616;SDS011;7908;51.688;7.130;2023-04-24T07:19:11;9.37;;;8.47;;
15616;SDS011;7908;51.688;7.130;2023-04-24T07:21:40;8.63;;;7.87;;
15616;SDS011;7908;51.688;7.130;2023-04-24T07:24:11;10.13;;;8.37;;
15616;SDS011;7908;51.688;7.130;2023-04-24T07:26:39;8.17;;;7.20;;
15616;SDS011;7908;51.688;7.130;2023-04-24T07:29:08;8.57;;;7.67;;
15616;SDS011;7908;51.688;7.130;2023-04-24T07:31:37;11.00;;;8.13;;
15616;SDS011;7908;51.688;7.130;2023-04-24T07:34:07;8.00;;;7.30;;
15616;SDS011;7908;51.688;7.130;2023-04-24T07:36:36;8.70;;;7.20;;
15616;SDS011;7908;51.688;7.130;2023-04-24T07:39:07;8.20;;;6.77;;
15616;SDS011;7908;51.688;7.130;2023-04-24T07:41:36;7.80;;;7.10;;
15616;SDS011;7908;51.688;7.130;2023-04-24T07:44:04;7.23;;;6.53;;
15616;SDS011;7908;51.688;7.130;2023-04-24T07:46:33;7.47;;;6.20;;
15616;SDS011;7908;51.688;7.130;2023-04-24T07:49:02;6.87;;;5.80;;
15616;SDS011;7908;51.688;7.130;2023-04-24T07:51:39;6.00;;;5.40;;
15616;SDS011;7908;51.688;7.130;2023-04-24T07:54:10;4.90;;;4.33;;
15616;SDS011;7908;51.688;7.130;2023-04-24T07:56:38;5.20;;;4.70;;
15616;SDS011;7908;51.688;7.130;2023-04-24T07:59:09;5.43;;;4.80;;
15616;SDS011;7908;51.688;7.130;2023-04-24T08:01:38;4.00;;;3.50;;
15616;SDS011;7908;51.688;7.130;2023-04-24T08:04:07;4.57;;;4.00;;
15616;SDS011;7908;51.688;7.130;2023-04-24T08:06:36;4.00;;;3.57;;
15616;SDS011;7908;51.688;7.130;2023-04-24T08:09:04;4.00;;;3.60;;
15616;SDS011;7908;51.688;7.130;2023-04-24T08:11:34;4.07;;;3.30;;
15616;SDS011;7908;51.688;7.130;2023-04-24T08:14:03;3.63;;;3.30;;
15616;SDS011;7908;51.688;7.130;2023-04-24T08:16:32;3.10;;;2.70;;
15616;SDS011;7908;51.688;7.130;2023-04-24T08:19:01;4.67;;;2.30;;
15616;SDS011;7908;51.688;7.130;2023-04-24T08:21:30;3.67;;;2.93;;
15616;SDS011;7908;51.688;7.130;2023-04-24T08:24:01;2.73;;;2.20;;
15616;SDS011;7908;51.688;7.130;2023-04-24T08:26:32;2.13;;;1.97;;
15616;SDS011;7908;51.688;7.130;2023-04-24T08:29:02;1.93;;;1.67;;
15616;SDS011;7908;51.688;7.130;2023-04-24T08:31:31;3.00;;;1.90;;
15616;SDS011;7908;51.688;7.130;2023-04-24T08:34:00;4.00;;;2.07;;
15616;SDS011;7908;51.688;7.130;2023-04-24T08:36:28;3.30;;;2.00;;
15616;SDS011;7908;51.688;7.130;2023-04-24T08:39:11;2.27;;;2.07;;
15616;SDS011;7908;51.688;7.130;2023-04-24T08:41:41;1.87;;;1.77;;
15616;SDS011;7908;51.688;7.130;2023-04-24T08:44:13;4.03;;;2.27;;
15616;SDS011;7908;51.688;7.130;2023-04-24T08:46:43;2.57;;;2.37;;
15616;SDS011;7908;51.688;7.130;2023-04-24T08:49:14;2.53;;;2.33;;
15616;SDS011;7908;51.688;7.130;2023-04-24T08:51:44;2.97;;;2.70;;
15616;SDS011;7908;51.688;7.130;2023-04-24T08:54:14;2.93;;;2.63;;
15616;SDS011;7908;51.688;7.130;2023-04-24T08:56:43;3.13;;;2.80;;
15616;SDS011;7908;51.688;7.130;2023-04-24T08:59:14;3.10;;;2.80;;
15616;SDS011;7908;51.688;7.130;2023-04-24T09:01:43;3.23;;;2.87;;
15616;SDS011;7908;51.688;7.130;2023-04-24T09:04:15;3.27;;;2.70;;
15616;SDS011;7908;51.688;7.130;2023-04-24T09:06:47;3.20;;;2.67;;
15616;SDS011;7908;51.688;7.130;2023-04-24T09:09:16;3.43;;;2.73;;
15616;SDS011;7908;51.688;7.130;2023-04-24T09:11:45;2.90;;;2.60;;
15616;SDS011;7908;51.688;7.130;2023-04-24T09:14:18;2.97;;;2.70;;
15616;SDS011;7908;51.688;7.130;2023-04-24T09:16:47;7.60;;;6.63;;
15616;SDS011;7908;51.688;7.130;2023-04-24T09:19:16;11.90;;;10.80;;
15616;SDS011;7908;51.688;7.130;2023-04-24T09:21:45;10.30;;;9.37;;
15616;SDS011;7908;51.688;7.130;2023-04-24T09:24:18;13.27;;;12.17;;
15616;SDS011;7908;51.688;7.130;2023-04-24T09:26:54;8.10;;;7.40;;
15616;SDS011;7908;51.688;7.130;2023-04-24T09:29:26;9.27;;;8.47;;
15616;SDS011;7908;51.688;7.130;2023-04-24T09:31:55;4.80;;;4.40;;
15616;SDS011;7908;51.688;7.130;2023-04-24T09:34:25;6.47;;;5.87;;
15616;SDS011;7908;51.688;7.130;2023-04-24T09:36:54;4.33;;;3.93;;
15616;SDS011;7908;51.688;7.130;2023-04-24T09:39:23;4.87;;;4.47;;
15616;SDS011;7908;51.688;7.130;2023-04-24T09:41:52;4.70;;;4.30;;
15616;SDS011;7908;51.688;7.130;2023-04-24T09:44:24;6.40;;;4.97;;
15616;SDS011;7908;51.688;7.130;2023-04-24T09:46:56;8.53;;;6.77;;
15616;SDS011;7908;51.688;7.130;2023-04-24T09:49:26;4.50;;;4.10;;
15616;SDS011;7908;51.688;7.130;2023-04-24T09:52:02;8.00;;;7.20;;
15616;SDS011;7908;51.688;7.130;2023-04-24T09:54:31;13.57;;;9.87;;
15616;SDS011;7908;51.688;7.130;2023-04-24T09:57:00;12.97;;;11.67;;
15616;SDS011;7908;51.688;7.130;2023-04-24T09:59:30;14.07;;;9.57;;
15616;SDS011;7908;51.688;7.130;2023-04-24T10:02:02;9.20;;;8.27;;
15616;SDS011;7908;51.688;7.130;2023-04-24T10:04:53;9.00;;;8.10;;
15616;SDS011;7908;51.688;7.130;2023-04-24T10:07:25;9.17;;;7.23;;
15616;SDS011;7908;51.688;7.130;2023-04-24T10:09:54;10.47;;;7.00;;
15616;SDS011;7908;51.688;7.130;2023-04-24T10:12:23;8.77;;;7.77;;
15616;SDS011;7908;51.688;7.130;2023-04-24T10:14:53;10.53;;;8.03;;
15616;SDS011;7908;51.688;7.130;2023-04-24T10:17:22;9.97;;;8.93;;
15616;SDS011;7908;51.688;7.130;2023-04-24T10:19:52;10.30;;;8.70;;
15616;SDS011;7908;51.688;7.130;2023-04-24T10:22:22;14.03;;;11.97;;
15616;SDS011;7908;51.688;7.130;2023-04-24T10:24:51;13.10;;;9.50;;
15616;SDS011;7908;51.688;7.130;2023-04-24T10:27:20;9.87;;;8.20;;
15616;SDS011;7908;51.688;7.130;2023-04-24T10:29:50;10.33;;;7.67;;
15616;SDS011;7908;51.688;7.130;2023-04-24T10:32:22;9.63;;;8.30;;
15616;SDS011;7908;51.688;7.130;2023-04-24T10:34:52;9.63;;;8.07;;
15616;SDS011;7908;51.688;7.130;2023-04-24T10:37:23;9.60;;;8.40;;
15616;SDS011;7908;51.688;7.130;2023-04-24T10:39:53;9.77;;;8.50;;
15616;SDS011;7908;51.688;7.130;2023-04-24T10:42:23;8.63;;;7.73;;
15616;SDS011;7908;51.688;7.130;2023-04-24T10:44:56;9.93;;;8.70;;
15616;SDS011;7908;51.688;7.130;2023-04-24T10:47:26;13.53;;;9.03;;
15616;SDS011;7908;51.688;7.130;2023-04-24T10:49:54;11.43;;;8.57;;
15616;SDS011;7908;51.688;7.130;2023-04-24T10:55:14;6.30;;;5.50;;
15616;SDS011;7908;51.688;7.130;2023-04-24T11:00:30;13.70;;;7.13;;
15616;SDS011;7908;51.688;7.130;2023-04-24T11:03:01;8.83;;;6.80;;
15616;SDS011;7908;51.688;7.130;2023-04-24T11:05:49;11.43;;;6.80;;
15616;SDS011;7908;51.688;7.130;2023-04-24T11:08:23;12.07;;;6.90;;
15616;SDS011;7908;51.688;7.130;2023-04-24T11:10:58;9.87;;;7.20;;
15616;SDS011;7908;51.688;7.130;2023-04-24T11:16:35;13.87;;;7.47;;
15616;SDS011;7908;51.688;7.130;2023-04-24T11:19:18;13.17;;;7.10;;
15616;SDS011;7908;51.688;7.130;2023-04-24T11:21:54;13.50;;;6.20;;
15616;SDS011;7908;51.688;7.130;2023-04-24T11:24:27;20.43;;;6.33;;
15616;SDS011;7908;51.688;7.130;2023-04-24T11:27:05;11.60;;;5.67;;
15616;SDS011;7908;51.688;7.130;2023-04-24T11:29:42;14.40;;;6.80;;
15616;SDS011;7908;51.688;7.130;2023-04-24T11:32:18;12.97;;;6.73;;
15616;SDS011;7908;51.688;7.130;2023-04-24T11:34:52;14.00;;;6.37;;
15616;SDS011;7908;51.688;7.130;2023-04-24T11:37:21;19.40;;;7.07;;
15616;SDS011;7908;51.688;7.130;2023-04-24T11:39:52;17.10;;;7.20;;
15616;SDS011;7908;51.688;7.130;2023-04-24T11:42:21;12.87;;;6.07;;
15616;SDS011;7908;51.688;7.130;2023-04-24T11:44:52;16.47;;;6.20;;
15616;SDS011;7908;51.688;7.130;2023-04-24T11:47:30;15.63;;;6.40;;
15616;SDS011;7908;51.688;7.130;2023-04-24T11:50:00;14.80;;;6.77;;
15616;SDS011;7908;51.688;7.130;2023-04-24T11:52:30;14.67;;;6.60;;
15616;SDS011;7908;51.688;7.130;2023-04-24T11:55:00;9.90;;;5.40;;
15616;SDS011;7908;51.688;7.130;2023-04-24T11:57:30;14.67;;;5.47;;
15616;SDS011;7908;51.688;7.130;2023-04-24T12:00:01;9.50;;;5.20;;
15616;SDS011;7908;51.688;7.130;2023-04-24T12:02:33;12.40;;;5.07;;
15616;SDS011;7908;51.688;7.130;2023-04-24T12:05:05;11.50;;;5.07;;
15616;SDS011;7908;51.688;7.130;2023-04-24T12:07:39;14.27;;;5.27;;
15616;SDS011;7908;51.688;7.130;2023-04-24T12:10:10;10.63;;;3.93;;
15616;SDS011;7908;51.688;7.130;2023-04-24T12:12:39;11.50;;;3.73;;
15616;SDS011;7908;51.688;7.130;2023-04-24T12:15:08;6.70;;;3.33;;
15616;SDS011;7908;51.688;7.130;2023-04-24T12:17:41;8.00;;;3.63;;
15616;SDS011;7908;51.688;7.130;2023-04-24T12:20:11;9.87;;;4.00;;
15616;SDS011;7908;51.688;7.130;2023-04-24T12:22:45;9.17;;;3.20;;
15616;SDS011;7908;51.688;7.130;2023-04-24T12:25:15;6.93;;;3.10;;
15616;SDS011;7908;51.688;7.130;2023-04-24T12:27:46;8.87;;;3.10;;
15616;SDS011;7908;51.688;7.130;2023-04-24T12:30:19;11.30;;;3.43;;
15616;SDS011;7908;51.688;7.130;2023-04-24T12:32:50;6.57;;;2.90;;
15616;SDS011;7908;51.688;7.130;2023-04-24T12:35:22;8.17;;;3.20;;
15616;SDS011;7908;51.688;7.130;2023-04-24T12:37:54;5.63;;;2.70;;
15616;SDS011;7908;51.688;7.130;2023-04-24T12:40:24;8.47;;;2.80;;
15616;SDS011;7908;51.688;7.130;2023-04-24T12:42:55;8.13;;;2.67;;
15616;SDS011;7908;51.688;7.130;2023-04-24T12:45:24;4.33;;;2.20;;
15616;SDS011;7908;51.688;7.130;2023-04-24T12:47:55;6.33;;;1.97;;
15616;SDS011;7908;51.688;7.130;2023-04-24T12:50:25;5.23;;;2.23;;
15616;SDS011;7908;51.688;7.130;2023-04-24T12:52:53;6.73;;;1.90;;
15616;SDS011;7908;51.688;7.130;2023-04-24T12:55:22;4.70;;;1.80;;
15616;SDS011;7908;51.688;7.130;2023-04-24T12:57:51;4.90;;;1.50;;
15616;SDS011;7908;51.688;7.130;2023-04-24T13:00:22;5.20;;;1.60;;
15616;SDS011;7908;51.688;7.130;2023-04-24T13:02:51;4.27;;;1.67;;
15616;SDS011;7908;51.688;7.130;2023-04-24T13:05:21;4.00;;;1.57;;
15616;SDS011;7908;51.688;7.130;2023-04-24T13:07:50;5.93;;;1.90;;
15616;SDS011;7908;51.688;7.130;2023-04-24T13:10:20;5.90;;;1.93;;
15616;SDS011;7908;51.688;7.130;2023-04-24T13:12:48;4.70;;;2.00;;
15616;SDS011;7908;51.688;7.130;2023-04-24T13:15:17;8.30;;;2.20;;
15616;SDS011;7908;51.688;7.130;2023-04-24T13:17:46;8.77;;;2.30;;
15616;SDS011;7908;51.688;7.130;2023-04-24T13:20:15;5.93;;;2.10;;
15616;SDS011;7908;51.688;7.130;2023-04-24T13:22:46;4.20;;;2.30;;
15616;SDS011;7908;51.688;7.130;2023-04-24T13:25:15;5.90;;;2.30;;
15616;SDS011;7908;51.688;7.130;2023-04-24T13:27:44;4.90;;;2.30;;
15616;SDS011;7908;51.688;7.130;2023-04-24T13:30:13;6.50;;;2.47;;
15616;SDS011;7908;51.688;7.130;2023-04-24T13:32:42;3.70;;;2.07;;
15616;SDS011;7908;51.688;7.130;2023-04-24T13:35:11;4.40;;;2.03;;
15616;SDS011;7908;51.688;7.130;2023-04-24T13:37:41;6.00;;;2.10;;
15616;SDS011;7908;51.688;7.130;2023-04-24T13:40:11;6.63;;;2.10;;
15616;SDS011;7908;51.688;7.130;2023-04-24T13:42:40;3.30;;;1.90;;
15616;SDS011;7908;51.688;7.130;2023-04-24T13:45:10;3.13;;;1.87;;
15616;SDS011;7908;51.688;7.130;2023-04-24T13:47:50;6.00;;;1.93;;
15616;SDS011;7908;51.688;7.130;2023-04-24T13:50:20;3.97;;;2.33;;
15616;SDS011;7908;51.688;7.130;2023-04-24T13:52:49;3.93;;;1.90;;
15616;SDS011;7908;51.688;7.130;2023-04-24T13:55:20;4.43;;;1.80;;
15616;SDS011;7908;51.688;7.130;2023-04-24T13:57:48;4.43;;;2.00;;
15616;SDS011;7908;51.688;7.130;2023-04-24T14:00:19;4.43;;;2.00;;
15616;SDS011;7908;51.688;7.130;2023-04-24T14:02:48;4.10;;;2.17;;
15616;SDS011;7908;51.688;7.130;2023-04-24T14:05:17;4.00;;;2.10;;
15616;SDS011;7908;51.688;7.130;2023-04-24T14:07:47;3.53;;;2.13;;
15616;SDS011;7908;51.688;7.130;2023-04-24T14:10:17;5.13;;;2.57;;
15616;SDS011;7908;51.688;7.130;2023-04-24T14:12:47;4.63;;;2.20;;
15616;SDS011;7908;51.688;7.130;2023-04-24T14:15:16;3.80;;;2.30;;
15616;SDS011;7908;51.688;7.130;2023-04-24T14:17:46;4.50;;;2.30;;
15616;SDS011;7908;51.688;7.130;2023-04-24T14:20:15;3.63;;;2.10;;
15616;SDS011;7908;51.688;7.130;2023-04-24T14:22:44;3.97;;;2.50;;
15616;SDS011;7908;51.688;7.130;2023-04-24T14:25:13;8.43;;;2.43;;
15616;SDS011;7908;51.688;7.130;2023-04-24T14:27:42;4.10;;;2.10;;
15616;SDS011;7908;51.688;7.130;2023-04-24T14:30:12;4.43;;;2.20;;
15616;SDS011;7908;51.688;7.130;2023-04-24T14:32:42;4.70;;;2.07;;
15616;SDS011;7908;51.688;7.130;2023-04-24T14:35:11;4.13;;;1.90;;
15616;SDS011;7908;51.688;7.130;2023-04-24T14:37:41;3.47;;;1.60;;
15616;SDS011;7908;51.688;7.130;2023-04-24T14:40:10;2.60;;;1.50;;
15616;SDS011;7908;51.688;7.130;2023-04-24T14:42:59;3.27;;;1.60;;
15616;SDS011;7908;51.688;7.130;2023-04-24T14:45:29;4.67;;;1.90;;
15616;SDS011;7908;51.688;7.130;2023-04-24T14:47:58;4.07;;;2.17;;
15616;SDS011;7908;51.688;7.130;2023-04-24T14:50:27;4.97;;;2.70;;
15616;SDS011;7908;51.688;7.130;2023-04-24T14:52:56;4.37;;;1.90;;
15616;SDS011;7908;51.688;7.130;2023-04-24T14:55:25;6.10;;;3.77;;
15616;SDS011;7908;51.688;7.130;2023-04-24T14:57:54;7.57;;;4.83;;
15616;SDS011;7908;51.688;7.130;2023-04-24T15:00:23;4.67;;;2.47;;
15616;SDS011;7908;51.688;7.130;2023-04-24T15:02:54;7.33;;;2.37;;
15616;SDS011;7908;51.688;7.130;2023-04-24T15:05:23;17.47;;;9.30;;
15616;SDS011;7908;51.688;7.130;2023-04-24T15:07:52;13.47;;;6.90;;
15616;SDS011;7908;51.688;7.130;2023-04-24T15:10:21;4.20;;;2.40;;
15616;SDS011;7908;51.688;7.130;2023-04-24T15:12:52;6.87;;;3.80;;
15616;SDS011;7908;51.688;7.130;2023-04-24T15:15:21;5.97;;;3.30;;
15616;SDS011;7908;51.688;7.130;2023-04-24T15:17:50;27.00;;;14.07;;